Etusivu
METAR-TAF:

METAR-TAF

Lentoasemat :

Oceanside Municipal Airport

Oceanside, Kalifornia, Yhdysvallat

Leveyspiiri: 33-13-05N, Pituuspiiri: 117-21-05W, korkeus merenpinnasta: 9 m

Tämänhetkinen sää

Tämä raportti tehtiin 31 minuuttia sitten, kello 10.52 UTC
tyyntä
Lämpötila 19°C
Kosteus 73%
Ilmanpaine 1014 hPa
Näkyvyys: 16.1 km
Pilvistä 2000 ft:n korkeudessa

METAR: KOKB 201052Z AUTO 00000KT 10SM OVC020 19/14 A2993 RMK AO2 SLP134 T01940144

Aika: 04:23 (11:23 UTC)


TAF: puuttuu

Säähavainnot ja -ennusteet yli 4000 lentoasemalta (METAR- ja TAF-raportit).

Käytössä olevat sääasemat on merkitty karttaan keltaisilla ja punaisilla pisteillä.

Aseta hiiri pisteen päälle nähdäksesi sääaseman nimen.

Klikkaa sitten nähdäksesi säähavainnot ja -ennusteet.

Kartan vaihtaminen: klikkaa mustalla rastilla varustettuja vihreitä pisteitä, niin voit zoomata sisään; viivalla varustettua vihreää pistettä, niin voit zoomata ulos tai vihreitä nuolia, niin pääset viereisille kartoille.


METAR-TAF: